createdAt,value
2023-03-19T00:00:30.134Z,24.13
2023-03-19T00:02:57.629Z,25.17
2023-03-19T00:05:24.833Z,25.40
2023-03-19T00:07:52.098Z,26.55
2023-03-19T00:10:19.095Z,26.85
2023-03-19T00:12:47.380Z,27.98
2023-03-19T00:15:15.154Z,29.48
2023-03-19T00:17:42.781Z,28.90
2023-03-19T00:20:11.664Z,29.17
2023-03-19T00:22:39.533Z,26.63
2023-03-19T00:25:08.023Z,27.55
2023-03-19T00:27:37.372Z,28.58
2023-03-19T00:30:06.364Z,29.08
2023-03-19T00:32:35.653Z,28.45
2023-03-19T00:35:03.767Z,26.65
2023-03-19T00:37:30.921Z,28.80
2023-03-19T00:39:58.783Z,29.38
2023-03-19T00:42:26.753Z,28.02
2023-03-19T00:44:54.409Z,28.08
2023-03-19T00:47:22.323Z,29.38
2023-03-19T00:49:49.356Z,28.85
2023-03-19T00:52:16.767Z,27.52
2023-03-19T00:54:44.354Z,23.45
2023-03-19T00:57:11.719Z,27.40
2023-03-19T00:59:39.309Z,26.35
2023-03-19T01:02:07.081Z,27.02
2023-03-19T01:04:34.478Z,23.05
2023-03-19T01:07:01.816Z,22.02
2023-03-19T01:09:28.815Z,21.58
2023-03-19T01:11:56.015Z,22.45
2023-03-19T01:14:23.364Z,23.00
2023-03-19T01:16:51.257Z,19.15
2023-03-19T01:19:19.866Z,22.90
2023-03-19T01:21:49.556Z,20.85
2023-03-19T01:24:21.247Z,23.70
2023-03-19T01:26:53.296Z,23.77
2023-03-19T01:29:29.154Z,22.00
2023-03-19T01:31:59.913Z,25.95
2023-03-19T01:35:02.879Z,29.15
2023-03-19T01:37:30.372Z,29.67
2023-03-19T01:39:57.731Z,27.58
2023-03-19T01:42:25.734Z,27.75
2023-03-19T01:45:32.402Z,23.90
2023-03-19T01:48:36.034Z,26.48
2023-03-19T01:51:08.185Z,26.65
2023-03-19T01:53:59.319Z,26.23
2023-03-19T01:56:55.288Z,25.48
2023-03-19T01:59:54.062Z,25.85
2023-03-19T02:02:32.827Z,25.40
2023-03-19T02:05:12.241Z,27.65
2023-03-19T02:07:40.405Z,26.02
2023-03-19T02:10:10.437Z,26.45
2023-03-19T02:12:38.970Z,25.70
2023-03-19T02:15:06.952Z,22.95
2023-03-19T02:17:34.175Z,24.10
2023-03-19T02:20:25.686Z,23.52
2023-03-19T02:23:22.007Z,23.88
2023-03-19T02:26:03.889Z,24.77
2023-03-19T02:28:32.129Z,26.58
2023-03-19T02:30:59.668Z,26.67
2023-03-19T02:33:26.901Z,26.50
2023-03-19T02:35:54.065Z,26.60
2023-03-19T02:38:22.543Z,24.27
2023-03-19T02:40:52.565Z,26.95
2023-03-19T02:43:22.426Z,25.33
2023-03-19T02:45:51.287Z,25.92
2023-03-19T02:48:18.693Z,26.67
2023-03-19T02:50:45.996Z,25.55
2023-03-19T02:53:13.658Z,26.08
2023-03-19T02:55:41.090Z,27.63
2023-03-19T02:58:08.159Z,28.75
2023-03-19T03:00:35.867Z,32.60
2023-03-19T03:03:03.580Z,29.45
2023-03-19T03:05:30.979Z,30.23
2023-03-19T03:07:58.360Z,32.58
2023-03-19T03:10:25.606Z,32.20
2023-03-19T03:12:52.851Z,28.55
2023-03-19T03:15:21.305Z,24.45
2023-03-19T03:17:49.220Z,22.13
2023-03-19T03:20:17.391Z,17.90
2023-03-19T03:22:44.551Z,18.10
2023-03-19T03:25:12.474Z,17.48
2023-03-19T03:27:41.444Z,18.63
2023-03-19T03:30:10.806Z,18.88
2023-03-19T03:32:38.561Z,19.98
2023-03-19T03:35:06.788Z,18.25
2023-03-19T03:37:34.205Z,17.30
2023-03-19T03:40:06.467Z,15.30
2023-03-19T03:42:34.101Z,16.77
2023-03-19T03:45:01.574Z,18.55
2023-03-19T03:47:28.865Z,14.48
2023-03-19T03:49:55.910Z,13.88
2023-03-19T03:52:23.654Z,13.32
2023-03-19T03:54:50.840Z,12.85
2023-03-19T03:57:18.128Z,11.90
2023-03-19T03:59:47.230Z,12.60
2023-03-19T04:02:14.547Z,12.75
2023-03-19T04:04:43.005Z,11.65
2023-03-19T04:07:10.514Z,12.63
2023-03-19T04:09:41.860Z,17.17
2023-03-19T04:12:09.281Z,13.02
2023-03-19T04:14:37.420Z,11.07
2023-03-19T04:17:05.192Z,14.15
2023-03-19T04:19:32.602Z,14.57
2023-03-19T04:21:59.660Z,12.48
2023-03-19T04:24:27.273Z,9.50
2023-03-19T04:26:54.978Z,8.55
2023-03-19T04:29:22.670Z,8.32
2023-03-19T04:31:50.772Z,8.35
2023-03-19T04:34:18.370Z,8.90
2023-03-19T04:36:45.532Z,8.48
2023-03-19T04:39:13.420Z,11.52
2023-03-19T04:41:40.880Z,8.68
2023-03-19T04:44:34.453Z,9.25
2023-03-19T04:47:02.377Z,8.75
2023-03-19T04:49:36.850Z,8.10
2023-03-19T04:52:04.195Z,7.80
2023-03-19T04:54:31.895Z,7.18
2023-03-19T04:56:59.325Z,7.28
2023-03-19T04:59:32.334Z,7.60
2023-03-19T05:01:59.580Z,7.80
2023-03-19T05:04:27.020Z,6.75
2023-03-19T05:07:00.938Z,7.05
2023-03-19T05:09:30.617Z,7.38
2023-03-19T05:11:59.728Z,8.07
2023-03-19T05:14:27.873Z,8.13
2023-03-19T05:17:07.245Z,8.63
2023-03-19T05:19:52.270Z,9.05
2023-03-19T05:22:20.287Z,8.50
2023-03-19T05:24:48.044Z,7.88
2023-03-19T05:27:15.574Z,10.13
2023-03-19T05:29:48.834Z,8.38
2023-03-19T05:32:22.797Z,7.93
2023-03-19T05:34:50.475Z,8.23
2023-03-19T05:37:18.972Z,8.25
2023-03-19T05:39:52.784Z,9.15
2023-03-19T05:42:20.224Z,9.20
2023-03-19T05:44:48.098Z,8.88
2023-03-19T05:47:23.137Z,9.07
2023-03-19T05:49:54.304Z,7.93
2023-03-19T05:52:21.793Z,7.40
2023-03-19T05:54:50.699Z,8.95
2023-03-19T05:57:40.873Z,7.65
2023-03-19T06:00:12.801Z,10.07
2023-03-19T06:02:40.235Z,8.45
2023-03-19T06:05:29.952Z,9.82
2023-03-19T06:08:03.124Z,9.57
2023-03-19T06:10:47.821Z,11.35
2023-03-19T06:13:15.073Z,9.45
2023-03-19T06:16:14.931Z,8.63
2023-03-19T06:18:52.712Z,9.40
2023-03-19T06:21:20.462Z,10.25
2023-03-19T06:23:47.543Z,10.23
2023-03-19T06:26:18.788Z,8.80
2023-03-19T06:28:52.260Z,9.52
2023-03-19T06:31:21.132Z,9.90
2023-03-19T06:33:54.613Z,10.50
2023-03-19T06:36:24.079Z,10.20
2023-03-19T06:38:51.210Z,9.38
2023-03-19T06:41:18.592Z,8.68
2023-03-19T06:43:47.862Z,9.80
2023-03-19T06:46:15.288Z,13.35
2023-03-19T06:48:42.372Z,11.20
2023-03-19T06:51:09.705Z,9.63
2023-03-19T06:53:36.759Z,8.93
2023-03-19T06:56:04.209Z,9.18
2023-03-19T06:58:31.513Z,8.40
2023-03-19T07:01:00.469Z,8.93
2023-03-19T07:03:27.858Z,8.52
2023-03-19T07:05:54.933Z,9.38
2023-03-19T07:08:21.959Z,8.88
2023-03-19T07:10:49.251Z,10.27
2023-03-19T07:13:16.404Z,8.27
2023-03-19T07:15:44.077Z,8.23
2023-03-19T07:18:12.009Z,9.68
2023-03-19T07:20:39.473Z,9.15
2023-03-19T07:23:06.776Z,8.32
2023-03-19T07:25:33.964Z,9.35
2023-03-19T07:28:00.910Z,7.72
2023-03-19T07:30:28.117Z,9.10
2023-03-19T07:32:55.672Z,8.52
2023-03-19T07:35:23.151Z,9.15
2023-03-19T07:37:50.758Z,7.95
2023-03-19T07:40:17.977Z,8.95
2023-03-19T07:42:45.966Z,7.57
2023-03-19T07:45:13.520Z,9.25
2023-03-19T07:47:40.604Z,9.65
2023-03-19T07:50:08.267Z,8.82
2023-03-19T07:52:35.604Z,10.00
2023-03-19T07:55:03.210Z,8.50
2023-03-19T07:57:31.269Z,8.38
2023-03-19T07:59:59.867Z,8.40
2023-03-19T08:02:27.025Z,9.18
2023-03-19T08:04:54.430Z,8.82
2023-03-19T08:07:22.391Z,9.50
2023-03-19T08:09:49.461Z,9.32
2023-03-19T08:12:16.502Z,8.55
2023-03-19T08:14:43.820Z,7.72
2023-03-19T08:17:11.197Z,7.55
2023-03-19T08:19:38.588Z,8.00
2023-03-19T08:22:05.628Z,7.22
2023-03-19T08:24:32.870Z,8.35
2023-03-19T08:27:00.609Z,7.93
2023-03-19T08:29:27.998Z,8.68
2023-03-19T08:31:55.879Z,8.57
2023-03-19T08:34:23.632Z,7.47
2023-03-19T08:36:50.882Z,8.73
2023-03-19T08:39:18.275Z,9.70
2023-03-19T08:41:45.630Z,7.78
2023-03-19T08:44:12.920Z,7.95
2023-03-19T08:46:40.095Z,9.43
2023-03-19T08:49:07.412Z,8.75
2023-03-19T08:51:34.481Z,7.53
2023-03-19T08:54:02.380Z,8.50
2023-03-19T08:56:29.755Z,6.05
2023-03-19T08:58:57.735Z,8.40
2023-03-19T09:01:24.932Z,8.60
2023-03-19T09:03:52.412Z,6.13
2023-03-19T09:06:19.341Z,6.72
2023-03-19T09:08:46.603Z,7.10
2023-03-19T09:11:14.580Z,6.70
2023-03-19T09:13:41.783Z,8.00
2023-03-19T09:16:09.154Z,8.52
2023-03-19T09:18:36.556Z,8.38
2023-03-19T09:21:04.266Z,7.15
2023-03-19T09:23:31.673Z,8.25
2023-03-19T09:25:58.968Z,6.85
2023-03-19T09:28:26.230Z,7.93
2023-03-19T09:30:53.504Z,7.10
2023-03-19T09:33:21.143Z,6.88
2023-03-19T09:35:52.733Z,7.30
2023-03-19T09:38:21.485Z,7.05
2023-03-19T09:41:28.529Z,6.03
2023-03-19T09:44:22.696Z,6.55
2023-03-19T09:47:08.370Z,7.95
2023-03-19T09:49:43.253Z,6.47
2023-03-19T09:52:34.783Z,6.53
2023-03-19T09:55:28.052Z,7.07
2023-03-19T09:57:57.682Z,6.53
2023-03-19T10:00:34.211Z,6.60
2023-03-19T10:03:24.602Z,6.63
2023-03-19T10:06:11.816Z,5.60
2023-03-19T10:08:57.831Z,7.18
2023-03-19T10:11:40.643Z,6.63
2023-03-19T10:14:46.003Z,6.20
2023-03-19T10:17:20.266Z,6.25
2023-03-19T10:19:51.471Z,6.40
2023-03-19T10:22:24.372Z,7.13
2023-03-19T10:24:51.666Z,10.48
2023-03-19T10:27:21.910Z,8.10
2023-03-19T10:29:49.308Z,8.30
2023-03-19T10:32:20.689Z,7.80
2023-03-19T10:34:49.160Z,8.90
2023-03-19T10:37:25.108Z,7.78
2023-03-19T10:39:56.116Z,8.40
2023-03-19T10:42:33.310Z,7.95
2023-03-19T10:45:02.923Z,8.02
2023-03-19T10:47:30.766Z,9.27
2023-03-19T10:49:58.096Z,8.45
2023-03-19T10:52:29.176Z,8.35
2023-03-19T10:55:16.484Z,11.00
2023-03-19T10:57:44.626Z,10.88
2023-03-19T11:00:18.409Z,9.25
2023-03-19T11:02:51.246Z,10.00
2023-03-19T11:05:21.937Z,10.30
2023-03-19T11:08:00.360Z,10.43
2023-03-19T11:10:29.710Z,10.68
2023-03-19T11:13:05.018Z,9.63
2023-03-19T11:15:38.706Z,9.60
2023-03-19T11:18:19.548Z,9.60
2023-03-19T11:20:55.628Z,10.63
2023-03-19T11:23:23.077Z,11.07
2023-03-19T11:25:52.110Z,11.18
2023-03-19T11:28:26.425Z,10.77
2023-03-19T11:31:12.185Z,10.13
2023-03-19T11:33:58.711Z,8.95
2023-03-19T11:36:33.668Z,9.73
2023-03-19T11:39:11.413Z,9.10
2023-03-19T11:42:20.801Z,8.90
2023-03-19T11:45:16.209Z,9.73
2023-03-19T11:48:15.304Z,9.80
2023-03-19T11:51:05.555Z,12.15
2023-03-19T11:54:00.782Z,23.45
2023-03-19T11:56:33.153Z,19.17
2023-03-19T11:59:06.399Z,17.20
2023-03-19T12:04:34.191Z,16.63
2023-03-19T12:07:25.482Z,19.20
2023-03-19T12:10:10.086Z,23.67
2023-03-19T12:12:51.254Z,21.50
2023-03-19T12:15:28.228Z,18.08
2023-03-19T12:18:17.029Z,17.48
2023-03-19T12:20:57.529Z,17.35
2023-03-19T12:23:40.873Z,18.60
2023-03-19T12:26:09.385Z,17.13
2023-03-19T12:28:47.577Z,11.38
2023-03-19T12:31:15.176Z,9.32
2023-03-19T12:33:54.028Z,7.50
2023-03-19T12:36:25.946Z,7.25
2023-03-19T12:39:06.161Z,7.07
2023-03-19T12:41:33.877Z,7.13
2023-03-19T12:44:33.154Z,8.20
2023-03-19T12:47:09.889Z,8.80
2023-03-19T12:49:58.235Z,12.50
2023-03-19T12:52:27.713Z,18.38
2023-03-19T12:55:36.383Z,15.35
2023-03-19T12:58:24.832Z,8.07
2023-03-19T13:01:09.195Z,13.23
2023-03-19T13:03:45.576Z,11.68
2023-03-19T13:06:48.309Z,13.73
2023-03-19T13:09:59.273Z,9.52
2023-03-19T13:12:28.952Z,8.27
2023-03-19T13:15:14.447Z,9.27
2023-03-19T13:18:14.337Z,9.05
2023-03-19T13:20:56.615Z,9.60
2023-03-19T13:23:32.589Z,11.27
2023-03-19T13:25:59.945Z,15.13
2023-03-19T13:28:29.245Z,12.98
2023-03-19T13:31:07.246Z,9.80
2023-03-19T13:33:34.890Z,9.75
2023-03-19T13:36:04.904Z,9.90
2023-03-19T13:38:42.348Z,9.65
2023-03-19T13:41:52.194Z,9.15
2023-03-19T13:44:22.584Z,14.80
2023-03-19T13:46:51.113Z,9.43
2023-03-19T13:49:35.136Z,14.45
2023-03-19T13:52:12.457Z,15.00
2023-03-19T13:54:40.604Z,14.93
2023-03-19T13:57:17.880Z,14.07
2023-03-19T13:59:50.198Z,11.23
2023-03-19T14:02:26.426Z,13.20
2023-03-19T14:05:04.287Z,15.10
2023-03-19T14:07:41.687Z,12.98
2023-03-19T14:10:22.718Z,11.55
2023-03-19T14:12:50.061Z,9.02
2023-03-19T14:15:22.871Z,8.85
2023-03-19T14:17:53.302Z,9.02
2023-03-19T14:20:33.658Z,9.20
2023-03-19T14:23:09.700Z,8.60
2023-03-19T14:26:03.136Z,9.40
2023-03-19T14:28:46.987Z,8.82
2023-03-19T14:31:23.522Z,9.55
2023-03-19T14:34:02.280Z,9.18
2023-03-19T14:36:29.642Z,8.30
2023-03-19T14:39:08.064Z,9.10
2023-03-19T14:41:40.127Z,8.85
2023-03-19T14:44:26.105Z,10.82
2023-03-19T14:47:31.001Z,10.50
2023-03-19T14:50:35.638Z,8.00
2023-03-19T14:53:14.846Z,6.82
2023-03-19T14:55:42.483Z,6.85
2023-03-19T14:58:12.667Z,6.38
2023-03-19T15:00:49.176Z,6.05
2023-03-19T15:03:26.199Z,6.13
2023-03-19T15:05:57.025Z,5.65
2023-03-19T15:08:26.232Z,5.88
2023-03-19T15:11:14.249Z,5.03
2023-03-19T15:14:18.942Z,5.05
2023-03-19T15:16:47.854Z,5.40
2023-03-19T15:19:15.374Z,5.30
2023-03-19T15:21:43.210Z,5.68
2023-03-19T15:24:15.196Z,4.72
2023-03-19T15:26:43.042Z,4.72
2023-03-19T15:29:12.398Z,5.15
2023-03-19T15:31:57.581Z,5.25
2023-03-19T15:34:31.020Z,4.72
2023-03-19T15:37:12.195Z,5.32
2023-03-19T15:39:47.867Z,4.20
2023-03-19T15:42:16.963Z,4.18
2023-03-19T15:44:47.798Z,4.03
2023-03-19T15:47:20.287Z,4.05
2023-03-19T15:50:12.612Z,4.20
2023-03-19T15:52:41.709Z,4.35
2023-03-19T15:55:09.280Z,4.63
2023-03-19T15:57:39.277Z,4.82
2023-03-19T16:00:09.969Z,4.68
2023-03-19T16:02:41.270Z,4.72
2023-03-19T16:05:24.128Z,4.57
2023-03-19T16:07:59.462Z,4.72
2023-03-19T16:10:42.093Z,3.90
2023-03-19T16:13:26.794Z,4.90
2023-03-19T16:15:56.721Z,4.68
2023-03-19T16:18:25.394Z,4.88
2023-03-19T16:21:00.877Z,5.35
2023-03-19T16:23:49.990Z,4.20
2023-03-19T16:26:25.353Z,5.03
2023-03-19T16:28:58.949Z,4.30
2023-03-19T16:31:29.626Z,5.32
2023-03-19T16:33:56.932Z,4.88
2023-03-19T16:36:26.749Z,4.60
2023-03-19T16:39:16.606Z,4.25
2023-03-19T16:41:43.835Z,3.72
2023-03-19T16:44:14.935Z,4.10
2023-03-19T16:46:42.116Z,3.67
2023-03-19T16:49:09.845Z,3.53
2023-03-19T16:51:37.026Z,3.40
2023-03-19T16:54:04.667Z,3.28
2023-03-19T16:56:31.733Z,3.58
2023-03-19T16:59:02.578Z,3.03
2023-03-19T17:01:29.888Z,3.90
2023-03-19T17:03:57.441Z,4.05
2023-03-19T17:06:24.511Z,4.20
2023-03-19T17:08:52.063Z,4.15
2023-03-19T17:11:27.735Z,4.03
2023-03-19T17:13:55.503Z,3.80
2023-03-19T17:16:23.014Z,4.47
2023-03-19T17:18:50.566Z,3.67
2023-03-19T17:21:23.704Z,1.80
2023-03-19T17:23:51.250Z,1.65
2023-03-19T17:26:28.343Z,1.75
2023-03-19T17:28:55.942Z,1.98
2023-03-19T17:31:24.505Z,2.35
2023-03-19T17:33:52.824Z,1.50
2023-03-19T17:36:20.398Z,1.40
2023-03-19T17:38:47.968Z,1.42
2023-03-19T17:41:17.359Z,1.00
2023-03-19T17:43:44.896Z,1.20
2023-03-19T17:46:23.787Z,1.48
2023-03-19T17:48:51.599Z,1.23
2023-03-19T17:51:18.728Z,1.00
2023-03-19T17:53:50.471Z,1.02
2023-03-19T17:56:22.333Z,0.70
2023-03-19T17:58:50.520Z,0.90
2023-03-19T18:01:26.121Z,0.93
2023-03-19T18:03:55.010Z,0.80
2023-03-19T18:06:24.708Z,1.10
2023-03-19T18:08:52.517Z,0.85
2023-03-19T18:11:19.881Z,0.80
2023-03-19T18:13:46.934Z,0.50
2023-03-19T18:16:23.385Z,0.77
2023-03-19T18:18:51.074Z,0.47
2023-03-19T18:21:18.238Z,1.05
2023-03-19T18:23:46.315Z,0.90
2023-03-19T18:26:13.685Z,1.33
2023-03-19T18:28:41.147Z,0.75
2023-03-19T18:31:15.632Z,1.20
2023-03-19T18:33:48.078Z,0.85
2023-03-19T18:36:18.665Z,0.60
2023-03-19T18:38:45.725Z,0.70
2023-03-19T18:41:17.689Z,0.68
2023-03-19T18:43:45.899Z,1.10
2023-03-19T18:46:18.812Z,0.52
2023-03-19T18:48:46.435Z,0.95
2023-03-19T18:51:13.596Z,0.88
2023-03-19T18:53:40.686Z,0.50
2023-03-19T18:56:20.875Z,0.70
2023-03-19T18:58:48.596Z,0.82
2023-03-19T19:01:16.474Z,0.80
2023-03-19T19:03:44.944Z,1.17
2023-03-19T19:06:47.284Z,0.80
2023-03-19T19:09:14.839Z,0.63
2023-03-19T19:11:42.081Z,1.00
2023-03-19T19:14:15.927Z,1.00
2023-03-19T19:16:43.386Z,1.13
2023-03-19T19:19:19.084Z,0.88
2023-03-19T19:21:47.436Z,0.85
2023-03-19T19:24:15.064Z,0.52
2023-03-19T19:26:42.310Z,0.70
2023-03-19T19:29:10.988Z,0.88
2023-03-19T19:31:38.051Z,0.70
2023-03-19T19:34:05.833Z,0.98
2023-03-19T19:36:33.049Z,0.63
2023-03-19T19:39:00.628Z,1.05
2023-03-19T19:41:28.444Z,0.52
2023-03-19T19:43:55.762Z,0.80
2023-03-19T19:46:23.472Z,0.68
2023-03-19T19:48:50.856Z,0.90
2023-03-19T19:51:25.492Z,0.73
2023-03-19T19:53:52.696Z,0.73
2023-03-19T19:56:24.141Z,1.20
2023-03-19T19:58:54.735Z,1.20
2023-03-19T20:01:23.939Z,0.82
2023-03-19T20:03:51.730Z,0.75
2023-03-19T20:06:19.233Z,1.02
2023-03-19T20:08:48.951Z,0.77
2023-03-19T20:11:23.466Z,0.50
2023-03-19T20:13:54.062Z,0.93
2023-03-19T20:16:23.188Z,1.13
2023-03-19T20:18:53.242Z,0.95
2023-03-19T20:21:20.861Z,0.90
2023-03-19T20:23:52.547Z,2.17
2023-03-19T20:26:21.253Z,1.52
2023-03-19T20:28:48.373Z,0.93
2023-03-19T20:31:17.451Z,1.20
2023-03-19T20:33:45.068Z,0.70
2023-03-19T20:36:15.914Z,0.60
2023-03-19T20:38:43.317Z,1.27
2023-03-19T20:41:17.281Z,1.17
2023-03-19T20:43:44.818Z,1.55
2023-03-19T20:46:12.231Z,0.68
2023-03-19T20:48:39.612Z,1.23
2023-03-19T20:51:07.483Z,0.95
2023-03-19T20:53:34.592Z,1.02
2023-03-19T20:56:04.118Z,0.70
2023-03-19T20:58:34.248Z,0.80
2023-03-19T21:01:02.815Z,0.68
2023-03-19T21:03:31.197Z,0.60
2023-03-19T21:06:02.731Z,0.52
2023-03-19T21:08:38.887Z,1.20
2023-03-19T21:11:08.727Z,1.40
2023-03-19T21:13:35.904Z,0.63
2023-03-19T21:16:03.609Z,0.65
2023-03-19T21:18:30.710Z,0.70
2023-03-19T21:20:58.414Z,1.48
2023-03-19T21:23:37.198Z,1.13
2023-03-19T21:26:24.741Z,1.00
2023-03-19T21:28:53.622Z,1.08
2023-03-19T21:31:21.512Z,0.70
2023-03-19T21:33:49.610Z,0.55
2023-03-19T21:36:16.793Z,2.00
2023-03-19T21:38:44.551Z,0.82
2023-03-19T21:41:25.732Z,0.63
2023-03-19T21:43:54.344Z,0.45
2023-03-19T21:46:25.009Z,0.80
2023-03-19T21:48:54.416Z,0.70
2023-03-19T21:51:22.258Z,0.50
2023-03-19T21:53:49.356Z,0.65
2023-03-19T21:56:33.006Z,0.80
2023-03-19T21:59:27.384Z,0.73
2023-03-19T22:01:54.820Z,0.70
2023-03-19T22:04:22.140Z,0.43
2023-03-19T22:06:49.356Z,1.05
2023-03-19T22:09:16.843Z,0.70
2023-03-19T22:11:46.067Z,0.73
2023-03-19T22:14:30.228Z,0.70
2023-03-19T22:16:57.954Z,1.08
2023-03-19T22:19:25.601Z,1.02
2023-03-19T22:21:53.435Z,0.60
2023-03-19T22:24:20.469Z,0.80
2023-03-19T22:26:49.475Z,1.05
2023-03-19T22:29:19.452Z,0.73
2023-03-19T22:31:50.749Z,0.80
2023-03-19T22:34:20.636Z,0.75
2023-03-19T22:36:48.016Z,0.57
2023-03-19T22:39:15.447Z,1.30
2023-03-19T22:41:45.523Z,0.80
2023-03-19T22:44:31.315Z,0.90
2023-03-19T22:46:59.205Z,0.80
2023-03-19T22:49:27.829Z,1.00
2023-03-19T22:51:56.143Z,0.73
2023-03-19T22:54:23.128Z,0.47
2023-03-19T22:56:50.593Z,1.10
2023-03-19T22:59:18.313Z,0.47
2023-03-19T23:01:46.470Z,0.32
2023-03-19T23:04:30.498Z,0.88
2023-03-19T23:06:59.003Z,0.80
2023-03-19T23:09:29.164Z,0.77
2023-03-19T23:11:57.566Z,0.90
2023-03-19T23:14:30.063Z,0.90
2023-03-19T23:17:03.685Z,0.82
2023-03-19T23:19:35.427Z,0.50
2023-03-19T23:22:04.590Z,1.13
2023-03-19T23:24:32.132Z,1.05
2023-03-19T23:27:00.310Z,0.70
2023-03-19T23:29:33.959Z,0.98
2023-03-19T23:32:01.939Z,0.38
2023-03-19T23:34:29.196Z,1.23
2023-03-19T23:36:57.732Z,1.00
2023-03-19T23:39:25.426Z,1.42
2023-03-19T23:41:55.694Z,0.82
2023-03-19T23:44:23.369Z,0.52
2023-03-19T23:46:50.906Z,0.85
2023-03-19T23:49:25.594Z,1.05
2023-03-19T23:51:52.732Z,0.52
2023-03-19T23:54:34.198Z,0.93
2023-03-19T23:57:04.656Z,0.60
2023-03-19T23:59:37.188Z,1.17
